createdAt,value
2022-11-17T00:00:42.229Z,100.00
2022-11-17T00:03:15.071Z,100.00
2022-11-17T00:05:42.522Z,100.00
2022-11-17T00:08:10.142Z,100.00
2022-11-17T00:10:37.337Z,100.00
2022-11-17T00:13:22.690Z,100.00
2022-11-17T00:15:49.770Z,100.00
2022-11-17T00:18:35.445Z,100.00
2022-11-17T00:21:20.067Z,100.00
2022-11-17T00:23:48.097Z,100.00
2022-11-17T00:26:17.386Z,100.00
2022-11-17T00:28:44.821Z,100.00
2022-11-17T00:31:32.341Z,100.00
2022-11-17T00:34:05.775Z,100.00
2022-11-17T00:36:39.099Z,100.00
2022-11-17T00:39:08.062Z,100.00
2022-11-17T00:41:36.018Z,100.00
2022-11-17T00:44:03.746Z,100.00
2022-11-17T00:46:30.922Z,100.00
2022-11-17T00:48:58.172Z,100.00
2022-11-17T00:51:25.840Z,100.00
2022-11-17T00:53:53.055Z,100.00
2022-11-17T00:56:20.196Z,100.00
2022-11-17T00:58:47.391Z,100.00
2022-11-17T01:01:15.070Z,100.00
2022-11-17T01:03:42.170Z,100.00
2022-11-17T01:06:20.597Z,100.00
2022-11-17T01:08:47.637Z,100.00
2022-11-17T01:11:18.307Z,100.00
2022-11-17T01:13:47.168Z,100.00
2022-11-17T01:16:19.183Z,100.00
2022-11-17T01:18:48.626Z,100.00
2022-11-17T01:21:18.955Z,100.00
2022-11-17T01:23:47.573Z,100.00
2022-11-17T01:26:17.240Z,100.00
2022-11-17T01:28:44.763Z,100.00
2022-11-17T01:31:17.674Z,100.00
2022-11-17T01:33:45.909Z,100.00
2022-11-17T01:36:24.937Z,100.00
2022-11-17T01:38:52.612Z,100.00
2022-11-17T01:41:21.380Z,100.00
2022-11-17T01:43:49.841Z,100.00
2022-11-17T01:46:40.212Z,100.00
2022-11-17T01:49:18.049Z,100.00
2022-11-17T01:51:53.808Z,100.00
2022-11-17T01:54:26.492Z,100.00
2022-11-17T01:56:57.480Z,100.00
2022-11-17T01:59:31.422Z,100.00
2022-11-17T02:01:59.053Z,100.00
2022-11-17T02:04:33.866Z,100.00
2022-11-17T02:07:25.334Z,100.00
2022-11-17T02:09:53.891Z,100.00
2022-11-17T02:12:24.630Z,100.00
2022-11-17T02:14:53.522Z,100.00
2022-11-17T02:17:22.960Z,100.00
2022-11-17T02:20:19.396Z,100.00
2022-11-17T02:23:11.342Z,100.00
2022-11-17T02:25:50.461Z,100.00
2022-11-17T02:28:22.426Z,100.00
2022-11-17T02:31:04.729Z,100.00
2022-11-17T02:33:38.319Z,100.00
2022-11-17T02:36:18.437Z,100.00
2022-11-17T02:39:05.604Z,100.00
2022-11-17T02:41:37.871Z,100.00
2022-11-17T02:44:11.530Z,100.00
2022-11-17T02:46:47.226Z,100.00
2022-11-17T02:49:22.929Z,100.00
2022-11-17T02:51:54.178Z,100.00
2022-11-17T02:54:24.396Z,100.00
2022-11-17T02:56:51.455Z,100.00
2022-11-17T02:59:23.933Z,100.00
2022-11-17T03:02:01.915Z,100.00
2022-11-17T03:04:32.415Z,100.00
2022-11-17T03:07:08.759Z,100.00
2022-11-17T03:10:02.405Z,100.00
2022-11-17T03:12:45.983Z,100.00
2022-11-17T03:15:33.357Z,100.00
2022-11-17T03:18:29.844Z,100.00
2022-11-17T03:21:11.133Z,100.00
2022-11-17T03:23:47.383Z,100.00
2022-11-17T03:26:21.260Z,100.00
2022-11-17T03:28:48.867Z,100.00
2022-11-17T03:31:18.590Z,100.00
2022-11-17T03:33:49.830Z,100.00
2022-11-17T03:36:21.922Z,100.00
2022-11-17T03:39:10.132Z,100.00
2022-11-17T03:41:43.350Z,100.00
2022-11-17T03:44:11.112Z,100.00
2022-11-17T03:49:26.219Z,100.00
2022-11-17T03:51:53.536Z,100.00
2022-11-17T03:54:20.774Z,100.00
2022-11-17T03:57:01.357Z,100.00
2022-11-17T03:59:36.855Z,100.00
2022-11-17T04:02:05.075Z,100.00
2022-11-17T04:04:52.081Z,100.00
2022-11-17T04:07:19.105Z,100.00
2022-11-17T04:09:46.110Z,100.00
2022-11-17T04:12:31.952Z,100.00
2022-11-17T04:15:17.538Z,100.00
2022-11-17T04:17:44.901Z,100.00
2022-11-17T04:20:12.023Z,100.00
2022-11-17T04:22:39.056Z,100.00
2022-11-17T04:25:06.370Z,100.00
2022-11-17T04:27:52.138Z,100.00
2022-11-17T04:30:19.362Z,100.00
2022-11-17T04:32:46.441Z,100.00
2022-11-17T04:35:13.667Z,100.00
2022-11-17T04:37:40.899Z,100.00
2022-11-17T04:40:08.764Z,100.00
2022-11-17T04:42:35.774Z,100.00
2022-11-17T04:45:02.820Z,100.00
2022-11-17T04:47:29.906Z,100.00
2022-11-17T04:49:56.880Z,100.00
2022-11-17T04:52:29.485Z,100.00
2022-11-17T04:54:56.934Z,100.00
2022-11-17T04:57:24.056Z,100.00
2022-11-17T04:59:51.446Z,100.00
2022-11-17T05:02:18.597Z,100.00
2022-11-17T05:05:06.017Z,100.00
2022-11-17T05:07:33.266Z,100.00
2022-11-17T05:10:00.439Z,100.00
2022-11-17T05:12:45.906Z,100.00
2022-11-17T05:15:33.022Z,100.00
2022-11-17T05:18:00.028Z,100.00
2022-11-17T05:20:27.118Z,100.00
2022-11-17T05:23:23.312Z,100.00
2022-11-17T05:25:53.996Z,100.00
2022-11-17T05:28:21.190Z,100.00
2022-11-17T05:30:48.404Z,100.00
2022-11-17T05:33:15.513Z,100.00
2022-11-17T05:35:42.532Z,100.00
2022-11-17T05:38:09.539Z,100.00
2022-11-17T05:40:36.461Z,100.00
2022-11-17T05:43:03.502Z,100.00
2022-11-17T05:45:30.468Z,100.00
2022-11-17T05:47:57.406Z,100.00
2022-11-17T05:50:24.261Z,100.00
2022-11-17T05:52:51.168Z,100.00
2022-11-17T05:55:18.215Z,100.00
2022-11-17T05:57:46.229Z,100.00
2022-11-17T06:00:13.902Z,100.00
2022-11-17T06:02:47.795Z,100.00
2022-11-17T06:05:20.000Z,100.00
2022-11-17T06:07:48.299Z,100.00
2022-11-17T06:10:15.291Z,100.00
2022-11-17T06:12:42.216Z,100.00
2022-11-17T06:15:09.655Z,100.00
2022-11-17T06:17:41.511Z,100.00
2022-11-17T06:20:13.316Z,100.00
2022-11-17T06:22:45.433Z,100.00
2022-11-17T06:25:15.956Z,100.00
2022-11-17T06:27:43.116Z,100.00
2022-11-17T06:30:10.732Z,100.00
2022-11-17T06:32:39.676Z,100.00
2022-11-17T06:35:09.074Z,100.00
2022-11-17T06:37:36.146Z,100.00
2022-11-17T06:40:03.220Z,100.00
2022-11-17T06:42:48.964Z,100.00
2022-11-17T06:45:16.071Z,100.00
2022-11-17T06:47:43.071Z,100.00
2022-11-17T06:50:10.278Z,100.00
2022-11-17T06:52:38.105Z,100.00
2022-11-17T06:55:05.790Z,100.00
2022-11-17T06:57:32.739Z,100.00
2022-11-17T06:59:59.671Z,100.00
2022-11-17T07:02:26.687Z,100.00
2022-11-17T07:04:53.620Z,100.00
2022-11-17T07:07:20.613Z,100.00
2022-11-17T07:09:47.651Z,100.00
2022-11-17T07:12:14.717Z,100.00
2022-11-17T07:14:41.847Z,100.00
2022-11-17T07:17:08.844Z,100.00
2022-11-17T07:19:35.941Z,100.00
2022-11-17T07:22:04.374Z,100.00
2022-11-17T07:24:31.366Z,100.00
2022-11-17T07:26:58.327Z,100.00
2022-11-17T07:29:25.954Z,100.00
2022-11-17T07:31:53.026Z,100.00
2022-11-17T07:34:20.069Z,100.00
2022-11-17T07:36:46.976Z,100.00
2022-11-17T07:39:21.220Z,100.00
2022-11-17T07:41:48.816Z,100.00
2022-11-17T07:44:15.666Z,100.00
2022-11-17T07:46:42.661Z,100.00
2022-11-17T07:49:09.580Z,100.00
2022-11-17T07:51:36.548Z,100.00
2022-11-17T07:54:03.863Z,100.00
2022-11-17T07:56:30.736Z,100.00
2022-11-17T07:58:57.718Z,100.00
2022-11-17T08:01:27.680Z,100.00
2022-11-17T08:03:54.855Z,100.00
2022-11-17T08:06:24.211Z,100.00
2022-11-17T08:08:51.729Z,100.00
2022-11-17T08:11:19.698Z,100.00
2022-11-17T08:13:47.489Z,100.00
2022-11-17T08:16:14.633Z,100.00
2022-11-17T08:18:42.486Z,100.00
2022-11-17T08:21:14.198Z,100.00
2022-11-17T08:23:42.291Z,100.00
2022-11-17T08:26:11.206Z,100.00
2022-11-17T08:28:38.853Z,100.00
2022-11-17T08:31:07.948Z,100.00
2022-11-17T08:33:35.310Z,100.00
2022-11-17T08:36:03.749Z,100.00
2022-11-17T08:38:31.204Z,100.00
2022-11-17T08:41:08.694Z,100.00
2022-11-17T08:43:36.462Z,100.00
2022-11-17T08:46:03.757Z,100.00
2022-11-17T08:48:31.929Z,100.00
2022-11-17T08:51:04.947Z,100.00
2022-11-17T08:53:31.908Z,100.00
2022-11-17T08:55:59.167Z,100.00
2022-11-17T08:58:26.162Z,100.00
2022-11-17T09:00:53.337Z,100.00
2022-11-17T09:03:20.396Z,100.00
2022-11-17T09:05:47.483Z,100.00
2022-11-17T09:08:44.908Z,100.00
2022-11-17T09:11:06.939Z,100.00
2022-11-17T09:13:34.956Z,100.00
2022-11-17T09:16:04.182Z,100.00
2022-11-17T09:18:31.667Z,100.00
2022-11-17T09:21:02.801Z,100.00
2022-11-17T09:23:31.821Z,100.00
2022-11-17T09:25:59.942Z,100.00
2022-11-17T09:28:27.608Z,100.00
2022-11-17T09:30:54.648Z,100.00
2022-11-17T09:33:21.808Z,100.00
2022-11-17T09:35:48.903Z,100.00
2022-11-17T09:38:15.897Z,100.00
2022-11-17T09:40:43.570Z,100.00
2022-11-17T09:43:39.907Z,100.00
2022-11-17T09:46:16.567Z,100.00
2022-11-17T09:48:56.027Z,100.00
2022-11-17T09:51:26.920Z,100.00
2022-11-17T09:54:07.681Z,100.00
2022-11-17T09:56:34.679Z,100.00
2022-11-17T09:59:12.334Z,100.00
2022-11-17T10:01:39.415Z,100.00
2022-11-17T10:04:13.338Z,100.00
2022-11-17T10:06:44.403Z,100.00
2022-11-17T10:09:29.740Z,100.00
2022-11-17T10:12:13.346Z,100.00
2022-11-17T10:14:41.356Z,100.00
2022-11-17T10:17:09.794Z,100.00
2022-11-17T10:19:41.293Z,100.00
2022-11-17T10:22:08.234Z,100.00
2022-11-17T10:24:35.178Z,100.00
2022-11-17T10:27:15.920Z,100.00
2022-11-17T10:30:01.690Z,100.00
2022-11-17T10:32:31.026Z,100.00
2022-11-17T10:35:22.854Z,100.00
2022-11-17T10:38:14.035Z,100.00
2022-11-17T10:40:41.017Z,100.00
2022-11-17T10:43:14.155Z,100.00
2022-11-17T10:45:45.526Z,100.00
2022-11-17T10:48:18.464Z,100.00
2022-11-17T10:51:19.567Z,100.00
2022-11-17T10:54:20.095Z,100.00
2022-11-17T10:56:50.747Z,100.00
2022-11-17T10:59:56.927Z,100.00
2022-11-17T11:02:35.601Z,100.00
2022-11-17T11:05:18.817Z,100.00
2022-11-17T11:07:45.977Z,100.00
2022-11-17T11:10:35.392Z,100.00
2022-11-17T11:13:13.226Z,100.00
2022-11-17T11:15:40.429Z,100.00
2022-11-17T11:18:18.885Z,100.00
2022-11-17T11:21:17.287Z,92.22
2022-11-17T11:24:02.023Z,75.26
2022-11-17T11:26:44.734Z,69.33
2022-11-17T11:29:11.770Z,71.80
2022-11-17T11:31:51.263Z,75.93
2022-11-17T11:34:43.193Z,93.48
2022-11-17T11:37:13.057Z,100.00
2022-11-17T11:40:02.946Z,100.00
2022-11-17T11:42:50.319Z,100.00
2022-11-17T11:45:19.530Z,100.00
2022-11-17T11:48:14.047Z,100.00
2022-11-17T11:50:51.150Z,100.00
2022-11-17T11:53:36.462Z,100.00
2022-11-17T11:56:26.572Z,100.00
2022-11-17T11:59:15.560Z,100.00
2022-11-17T12:01:48.668Z,94.19
2022-11-17T12:04:27.934Z,79.29
2022-11-17T12:07:13.579Z,70.49
2022-11-17T12:09:58.311Z,61.03
2022-11-17T12:12:32.339Z,57.30
2022-11-17T12:15:19.138Z,56.56
2022-11-17T12:17:52.317Z,57.62
2022-11-17T12:20:31.340Z,58.04
2022-11-17T12:23:20.052Z,62.20
2022-11-17T12:25:54.503Z,60.75
2022-11-17T12:28:27.656Z,64.18
2022-11-17T12:31:10.087Z,63.12
2022-11-17T12:33:52.826Z,59.23
2022-11-17T12:36:32.902Z,58.86
2022-11-17T12:39:01.894Z,58.57
2022-11-17T12:41:47.691Z,55.77
2022-11-17T12:44:44.149Z,52.01
2022-11-17T12:47:18.284Z,50.45
2022-11-17T12:50:03.828Z,52.22
2022-11-17T12:52:35.677Z,50.94
2022-11-17T12:55:40.556Z,49.27
2022-11-17T12:58:28.457Z,49.07
2022-11-17T13:01:14.390Z,49.41
2022-11-17T13:03:55.110Z,48.28
2022-11-17T13:06:37.471Z,47.27
2022-11-17T13:09:12.353Z,47.46
2022-11-17T13:11:39.502Z,51.09
